Time;durP1;ratioP1;P1;durP2;ratioP2;P2;SDS_P1;SDS_P2;PMS_P1;PMS_P2;Temp;Humidity;BMP_temperature;BMP_pressure;BME280_temperature;BME280_humidity;BME280_pressure;Samples;Min_cycle;Max_cycle;Signal;HPM_P1;HPM_P2
2021/11/12 00:12:47;;;;;;;15.90;8.73;;;4.40;76.00;;;;;;5116646;28;20035;-81
2021/11/12 00:15:12;;;;;;;12.77;8.43;;;4.40;76.10;;;;;;5116687;28;20020;-81
2021/11/12 00:17:40;;;;;;;15.88;9.32;;;4.30;76.20;;;;;;5117086;28;20065;-81
2021/11/12 00:20:07;;;;;;;11.95;8.13;;;4.40;76.20;;;;;;5116500;28;20615;-81
2021/11/12 00:22:34;;;;;;;14.65;8.77;;;4.30;76.10;;;;;;5116528;28;20027;-81
2021/11/12 00:25:02;;;;;;;14.55;9.02;;;4.30;76.50;;;;;;5117150;28;20035;-81
2021/11/12 00:27:29;;;;;;;13.38;8.55;;;4.30;76.60;;;;;;5116660;28;20015;-80
2021/11/12 00:32:49;;;;;;;17.23;8.82;;;4.30;76.90;;;;;;5118175;28;20086;-80
2021/11/12 00:35:29;;;;;;;17.15;9.38;;;4.40;76.80;;;;;;5116654;28;20020;-80
2021/11/12 00:38:00;;;;;;;17.60;9.27;;;4.40;76.40;;;;;;5116342;28;20429;-80
2021/11/12 00:40:34;;;;;;;15.02;8.75;;;4.40;77.00;;;;;;5116123;28;20058;-80
2021/11/12 00:45:27;;;;;;;13.60;9.00;;;4.40;76.00;;;;;;5115978;28;20028;-80
2021/11/12 00:47:56;;;;;;;23.33;10.77;;;4.40;75.70;;;;;;5103942;27;20008;-80
2021/11/12 00:50:32;;;;;;;15.35;9.55;;;4.30;75.40;;;;;;5138186;27;20020;-80
2021/11/12 00:55:26;;;;;;;15.15;9.23;;;4.30;75.30;;;;;;5116261;28;20066;-81
2021/11/12 00:57:54;;;;;;;18.77;10.23;;;4.30;75.10;;;;;;5115792;28;20015;-82
2021/11/12 01:00:20;;;;;;;15.73;9.57;;;4.20;75.80;;;;;;5115691;28;20041;-82
2021/11/12 01:02:46;;;;;;;14.90;9.55;;;4.20;75.10;;;;;;5115707;28;20073;-81
2021/11/12 01:05:12;;;;;;;16.52;9.50;;;4.20;75.30;;;;;;5115346;28;20035;-79
2021/11/12 01:07:38;;;;;;;16.25;9.73;;;4.10;75.40;;;;;;5115592;28;20031;-82
2021/11/12 01:10:08;;;;;;;16.00;9.75;;;4.10;75.50;;;;;;5115460;28;20027;-79
2021/11/12 01:12:35;;;;;;;15.40;9.63;;;4.00;75.50;;;;;;5115757;28;20018;-82
2021/11/12 01:15:03;;;;;;;16.98;10.00;;;4.10;75.70;;;;;;5114707;28;20051;-79
2021/11/12 01:17:29;;;;;;;13.02;8.15;;;4.00;75.70;;;;;;5097118;28;20106;-81
2021/11/12 01:19:54;;;;;;;14.68;8.57;;;4.00;75.90;;;;;;5115299;28;20023;-81
2021/11/12 01:22:21;;;;;;;14.18;8.88;;;4.00;75.90;;;;;;5115341;28;20031;-81
2021/11/12 01:24:47;;;;;;;18.05;8.88;;;4.00;75.90;;;;;;5115272;28;20540;-82
2021/11/12 01:27:13;;;;;;;15.13;9.63;;;4.00;76.40;;;;;;5114926;28;20380;-82
2021/11/12 01:29:38;;;;;;;16.50;10.68;;;4.00;75.80;;;;;;5116984;28;20028;-81
2021/11/12 01:32:24;;;;;;;15.18;9.95;;;4.00;75.40;;;;;;5132482;27;20048;-79
2021/11/12 01:34:54;;;;;;;14.75;9.68;;;4.00;75.30;;;;;;5140731;27;20012;-81
2021/11/12 01:37:21;;;;;;;14.93;9.15;;;4.00;75.30;;;;;;5120453;28;20016;-81
2021/11/12 01:39:57;;;;;;;14.20;9.07;;;3.90;75.30;;;;;;5115412;28;20586;-80
2021/11/12 01:42:26;;;;;;;15.07;8.95;;;3.90;75.50;;;;;;5115114;28;20034;-78
2021/11/12 01:45:08;;;;;;;14.25;9.32;;;3.80;75.80;;;;;;5114915;28;20027;-80
2021/11/12 01:47:56;;;;;;;14.95;9.02;;;3.80;76.00;;;;;;5115081;28;20094;-79
2021/11/12 01:50:24;;;;;;;14.48;8.98;;;3.70;76.10;;;;;;5114781;28;20384;-81
2021/11/12 01:52:56;;;;;;;18.75;9.40;;;3.80;76.30;;;;;;5114651;28;20019;-80
2021/11/12 01:55:40;;;;;;;14.70;9.10;;;3.80;76.50;;;;;;5096732;28;20421;-81
2021/11/12 01:58:26;;;;;;;13.98;9.10;;;3.70;76.20;;;;;;5114562;28;20035;-80
2021/11/12 02:00:51;;;;;;;14.20;8.55;;;3.70;76.20;;;;;;5114262;28;20024;-80
2021/11/12 02:03:18;;;;;;;15.20;8.85;;;3.70;76.10;;;;;;5114373;28;20381;-81
2021/11/12 02:05:44;;;;;;;15.80;8.55;;;3.70;76.10;;;;;;5114416;28;20445;-81
2021/11/12 02:08:10;;;;;;;14.10;9.25;;;3.70;76.10;;;;;;5114338;28;20024;-80
2021/11/12 02:10:36;;;;;;;13.82;8.48;;;3.60;76.50;;;;;;5096046;28;20051;-80
2021/11/12 02:13:11;;;;;;;14.13;8.88;;;3.60;76.50;;;;;;5114165;28;20023;-80
2021/11/12 02:15:39;;;;;;;16.40;9.02;;;3.70;76.60;;;;;;5114380;28;20499;-80
2021/11/12 02:18:13;;;;;;;15.82;8.70;;;3.70;76.50;;;;;;5114142;28;20028;-80
2021/11/12 02:20:50;;;;;;;14.45;8.52;;;3.70;76.40;;;;;;5114091;28;20023;-80
2021/11/12 02:23:17;;;;;;;12.38;7.70;;;3.60;76.30;;;;;;5113978;28;20024;-80
2021/11/12 02:25:44;;;;;;;16.00;9.02;;;3.60;76.50;;;;;;5114176;28;20487;-80
2021/11/12 02:28:14;;;;;;;17.52;8.55;;;3.60;76.70;;;;;;5113015;28;20024;-80
2021/11/12 02:30:43;;;;;;;12.35;7.60;;;3.60;76.90;;;;;;5113782;28;20502;-81
2021/11/12 02:33:12;;;;;;;18.05;8.05;;;3.50;77.10;;;;;;5113863;28;20536;-80
2021/11/12 02:35:41;;;;;;;14.63;8.70;;;3.60;77.00;;;;;;5113928;28;20035;-80
2021/11/12 02:38:07;;;;;;;14.13;7.70;;;3.50;77.10;;;;;;5113812;28;20031;-80
2021/11/12 02:40:34;;;;;;;14.10;8.45;;;3.50;77.20;;;;;;5116014;28;20027;-80
2021/11/12 02:43:01;;;;;;;13.70;8.45;;;3.50;77.10;;;;;;5099655;28;20088;-79
2021/11/12 02:45:29;;;;;;;13.73;8.63;;;3.60;77.20;;;;;;5113695;28;20031;-80
2021/11/12 02:47:55;;;;;;;16.30;9.77;;;3.60;77.20;;;;;;5113675;28;20509;-80
2021/11/12 02:50:21;;;;;;;13.85;8.65;;;3.60;76.90;;;;;;5095436;28;20031;-79
2021/11/12 02:52:51;;;;;;;15.15;9.38;;;3.60;76.70;;;;;;5113528;28;20042;-80
2021/11/12 02:55:17;;;;;;;18.58;10.23;;;3.60;76.40;;;;;;5113689;28;20454;-80
2021/11/12 02:57:43;;;;;;;16.08;9.20;;;3.60;76.50;;;;;;5095478;28;20055;-80
2021/11/12 03:00:11;;;;;;;15.45;9.93;;;3.60;76.30;;;;;;5115376;28;20023;-80
2021/11/12 03:02:37;;;;;;;19.48;10.07;;;3.60;76.40;;;;;;5113545;28;20035;-79
2021/11/12 03:05:04;;;;;;;16.67;10.40;;;3.60;76.20;;;;;;5113446;28;20379;-79
2021/11/12 03:07:30;;;;;;;18.50;10.15;;;3.60;76.00;;;;;;5113446;28;20030;-79
2021/11/12 03:09:55;;;;;;;16.58;9.88;;;3.60;76.00;;;;;;5113643;28;20028;-79
2021/11/12 03:12:21;;;;;;;17.73;9.55;;;3.60;76.10;;;;;;5125193;27;20063;-78
2021/11/12 03:14:48;;;;;;;15.23;9.50;;;3.60;76.20;;;;;;5130957;27;20035;-79
2021/11/12 03:17:14;;;;;;;15.40;8.68;;;3.60;76.20;;;;;;5115072;28;20043;-80
2021/11/12 03:19:40;;;;;;;15.27;9.10;;;3.60;76.00;;;;;;5113772;28;20110;-80
2021/11/12 03:22:09;;;;;;;14.20;9.05;;;3.60;75.90;;;;;;5113445;28;20019;-79
2021/11/12 03:24:39;;;;;;;15.18;9.02;;;3.60;75.80;;;;;;5113243;28;20555;-79
2021/11/12 04:02:50;;;;;;;15.13;9.88;;;3.40;76.50;;;;;;5103284;28;20035;-79
2021/11/12 04:05:35;;;;;;;15.60;9.07;;;3.40;76.30;;;;;;5116750;28;20028;-79
2021/11/12 04:17:14;;;;;;;20.13;11.27;;;3.30;76.00;;;;;;5116895;28;20085;-79
2021/11/12 04:39:58;;;;;;;20.15;10.77;;;3.40;77.90;;;;;;5116622;28;20094;-81
2021/11/12 04:41:22;;;;;;;19.55;11.00;;;3.40;77.40;;;;;;5116264;28;20034;-82
2021/11/12 04:49:50;;;;;;;20.73;12.52;;;3.40;76.90;;;;;;5116072;28;20396;-80
2021/11/12 05:43:47;;;;;;;24.83;13.70;;;3.80;84.30;;;;;;5116578;28;20058;-78
2021/11/12 05:56:34;;;;;;;31.88;16.33;;;3.80;82.30;;;;;;5116110;28;20050;-79
2021/11/12 05:59:00;;;;;;;28.20;15.25;;;3.70;80.90;;;;;;5115359;28;20460;-80
2021/11/12 06:01:26;;;;;;;32.05;17.38;;;3.60;80.80;;;;;;5114889;28;20035;-80
2021/11/12 06:03:51;;;;;;;30.15;17.83;;;3.60;81.10;;;;;;5116076;28;20552;-82
2021/11/12 06:06:17;;;;;;;34.85;18.83;;;3.60;81.70;;;;;;5115676;28;20042;-79
2021/11/12 06:08:42;;;;;;;27.05;16.33;;;3.60;82.00;;;;;;5115886;28;20449;-79
2021/11/12 06:11:08;;;;;;;29.30;16.48;;;3.50;81.60;;;;;;5114887;28;20024;-79
2021/11/12 06:13:34;;;;;;;29.95;17.20;;;3.50;81.10;;;;;;5114841;28;20123;-79
2021/11/12 06:16:00;;;;;;;37.30;20.27;;;3.50;80.90;;;;;;5114148;28;20523;-78
2021/11/12 06:18:26;;;;;;;35.10;20.23;;;3.50;81.20;;;;;;5114347;28;20051;-80
2021/11/12 06:20:52;;;;;;;37.55;21.02;;;3.50;83.00;;;;;;5113886;28;20099;-79
2021/11/12 06:23:17;;;;;;;38.80;22.23;;;3.40;83.00;;;;;;5113934;28;20499;-81
2021/11/12 06:25:44;;;;;;;42.72;20.90;;;3.40;84.10;;;;;;5113823;28;20108;-79
2021/11/12 06:28:09;;;;;;;33.67;19.48;;;3.50;84.50;;;;;;5113636;28;20046;-78
2021/11/12 06:30:35;;;;;;;32.80;18.05;;;3.50;83.70;;;;;;5113147;28;20277;-81
2021/11/12 06:33:01;;;;;;;32.78;17.15;;;3.50;82.90;;;;;;5095103;28;20518;-78
2021/11/12 06:35:27;;;;;;;31.77;16.65;;;3.60;81.90;;;;;;5113658;28;20027;-79
2021/11/12 06:37:55;;;;;;;31.40;17.42;;;3.60;81.20;;;;;;5113695;28;20024;-80
2021/11/12 06:40:21;;;;;;;34.78;18.52;;;3.60;80.60;;;;;;5113726;28;20023;-79
2021/11/12 06:43:21;;;;;;;38.20;20.83;;;3.70;81.20;;;;;;5113807;28;20022;-80
2021/11/12 06:51:07;;;;;;;35.78;19.38;;;3.70;83.30;;;;;;5113622;28;20114;-80
2021/11/12 06:53:32;;;;;;;35.58;19.75;;;3.80;82.60;;;;;;5113534;28;20051;-79
2021/11/12 06:56:01;;;;;;;31.05;17.58;;;3.80;81.60;;;;;;5113404;28;20024;-80
2021/11/12 06:58:29;;;;;;;29.50;16.65;;;3.80;80.90;;;;;;5113531;28;20027;-79
2021/11/12 07:00:55;;;;;;;30.98;16.02;;;3.80;80.30;;;;;;5113226;28;20047;-78
2021/11/12 07:03:23;;;;;;;29.98;15.90;;;3.90;79.30;;;;;;5113362;28;20039;-78
2021/11/12 07:05:49;;;;;;;32.65;16.33;;;3.90;78.60;;;;;;5113617;28;20039;-80
2021/11/12 07:08:15;;;;;;;28.73;15.55;;;3.90;78.20;;;;;;5095286;28;20537;-78
2021/11/12 07:10:41;;;;;;;35.92;18.52;;;4.00;78.00;;;;;;5113344;28;20028;-79
2021/11/12 07:13:07;;;;;;;28.20;17.38;;;4.00;77.60;;;;;;5113696;28;20106;-81
2021/11/12 07:15:33;;;;;;;35.95;20.52;;;4.10;77.70;;;;;;5118860;28;20123;-78
2021/11/12 07:17:59;;;;;;;40.78;18.30;;;4.20;78.00;;;;;;5118113;28;20023;-77
2021/11/12 07:20:25;;;;;;;35.75;20.77;;;4.80;93.30;;;;;;5119875;28;20027;-88
2021/11/12 07:22:51;;;;;;;39.88;22.27;;;5.40;97.30;;;;;;5118897;28;20020;-83
2021/11/12 07:25:17;;;;;;;32.30;19.88;;;6.20;92.10;;;;;;5117768;28;20027;-84
2021/11/12 07:27:42;;;;;;;38.75;21.10;;;6.60;82.60;;;;;;5117628;28;20103;-82
2021/11/12 07:30:14;;;;;;;45.20;22.20;;;7.00;77.60;;;;;;5117779;28;20023;-83
2021/11/12 07:32:42;;;;;;;38.30;20.85;;;7.10;74.70;;;;;;5117210;28;20462;-85
2021/11/12 07:35:08;;;;;;;47.60;22.17;;;6.80;71.40;;;;;;5117340;28;20032;-85
2021/11/12 07:37:34;;;;;;;39.92;22.92;;;7.00;72.90;;;;;;5117783;28;20087;-80
2021/11/12 07:40:03;;;;;;;31.05;19.17;;;6.80;70.50;;;;;;5099268;28;20020;-79
2021/11/12 07:47:26;;;;;;;29.85;17.75;;;6.20;72.40;;;;;;5116815;28;20016;-78
2021/11/12 07:49:59;;;;;;;31.92;19.98;;;6.10;73.00;;;;;;5117028;28;20103;-79
2021/11/12 07:52:28;;;;;;;36.72;21.90;;;6.00;73.50;;;;;;5117231;28;20020;-78
2021/11/12 07:54:55;;;;;;;39.33;23.50;;;5.80;74.40;;;;;;5117249;28;20027;-78
2021/11/12 07:57:21;;;;;;;38.28;22.15;;;5.70;75.20;;;;;;5116881;28;20077;-79
2021/11/12 07:59:46;;;;;;;35.90;20.60;;;5.70;75.30;;;;;;5098930;28;20015;-79
2021/11/12 08:02:17;;;;;;;31.75;20.50;;;5.70;75.50;;;;;;5098755;28;20533;-78
2021/11/12 08:04:44;;;;;;;41.63;24.17;;;5.80;75.70;;;;;;5116738;28;20059;-79
2021/11/12 08:07:10;;;;;;;36.65;20.27;;;5.90;75.30;;;;;;5117211;28;20054;-79
2021/11/12 08:09:39;;;;;;;38.65;20.73;;;5.90;75.10;;;;;;5117165;28;20094;-78
2021/11/12 08:12:10;;;;;;;33.95;19.27;;;6.00;74.90;;;;;;5119514;28;20051;-78
2021/11/12 08:17:33;;;;;;;33.45;19.65;;;6.30;74.40;;;;;;5116895;28;20026;-77
2021/11/12 08:20:14;;;;;;;35.22;20.45;;;6.50;74.10;;;;;;5116465;28;20023;-77
2021/11/12 08:22:55;;;;;;;35.42;19.42;;;6.70;73.80;;;;;;5116701;28;20047;-77
2021/11/12 08:26:04;;;;;;;39.75;20.38;;;6.80;73.50;;;;;;5116927;28;20115;-78
2021/11/12 08:33:44;;;;;;;37.58;21.95;;;7.00;72.60;;;;;;5047939;28;20049;-77
2021/11/12 08:36:32;;;;;;;45.90;25.88;;;7.10;73.70;;;;;;5118644;28;20106;-77
2021/11/12 08:41:57;;;;;;;44.75;27.52;;;7.00;73.40;;;;;;5089722;28;20506;-77
2021/11/12 08:44:48;;;;;;;51.03;27.90;;;7.00;73.60;;;;;;5123475;28;20022;-78
2021/11/12 08:47:13;;;;;;;;;;;6.80;74.50;;;;;;5123023;28;20071;-78
2021/11/12 08:49:41;;;;;;;42.45;23.92;;;6.80;75.30;;;;;;5101762;28;19926;-78
2021/11/12 08:52:09;;;;;;;42.03;22.77;;;7.20;74.80;;;;;;5118360;28;20047;-78
2021/11/12 08:54:39;;;;;;;42.03;23.10;;;7.60;74.30;;;;;;5123292;28;20023;-79
2021/11/12 08:57:10;;;;;;;38.50;23.70;;;7.90;73.20;;;;;;5119946;28;20031;-78
2021/11/12 08:59:39;;;;;;;45.08;24.25;;;8.30;72.20;;;;;;5118060;28;20487;-78
2021/11/12 09:02:08;;;;;;;40.85;22.48;;;8.70;70.80;;;;;;5101747;28;20031;-77
2021/11/12 09:04:38;;;;;;;40.47;23.67;;;9.00;69.80;;;;;;5098554;28;20501;-77
2021/11/12 09:07:08;;;;;;;36.22;22.63;;;9.30;68.50;;;;;;5116498;28;20436;-78
2021/11/12 09:09:34;;;;;;;42.40;24.52;;;9.50;66.70;;;;;;5126530;28;20069;-78
2021/11/12 09:12:01;;;;;;;41.03;24.70;;;9.70;65.80;;;;;;5117608;28;20023;-78
2021/11/12 09:14:28;;;;;;;38.65;21.77;;;9.50;65.70;;;;;;5116691;28;20030;-78
2021/11/12 09:16:54;;;;;;;35.00;21.13;;;9.80;65.70;;;;;;5116138;28;20051;-78
2021/11/12 09:19:19;;;;;;;35.95;21.17;;;10.00;65.00;;;;;;5115521;28;20026;-78
2021/11/12 09:21:47;;;;;;;36.28;20.98;;;10.10;63.80;;;;;;5097278;28;20051;-78
2021/11/12 09:24:13;;;;;;;35.55;19.48;;;10.10;64.80;;;;;;5115528;28;20027;-78
2021/11/12 09:26:41;;;;;;;36.90;19.88;;;10.10;64.80;;;;;;5115534;28;20020;-79
2021/11/12 09:29:12;;;;;;;35.05;19.58;;;10.30;64.70;;;;;;5115158;28;20157;-79
2021/11/12 09:31:39;;;;;;;33.97;19.65;;;10.70;64.00;;;;;;5115163;28;20484;-79
2021/11/12 09:34:10;;;;;;;33.63;18.67;;;11.00;62.90;;;;;;5115375;28;20098;-78
2021/11/12 09:36:35;;;;;;;33.20;19.30;;;11.30;62.10;;;;;;5114707;28;20023;-78
2021/11/12 09:39:02;;;;;;;34.70;20.17;;;11.60;61.10;;;;;;5114911;28;20571;-79
2021/11/12 09:41:28;;;;;;;31.85;19.27;;;11.80;59.80;;;;;;5114556;28;20047;-79
2021/11/12 09:43:54;;;;;;;39.20;20.02;;;12.00;59.10;;;;;;5114620;28;20032;-79
2021/11/12 09:46:19;;;;;;;30.30;17.83;;;12.20;59.40;;;;;;5096544;28;20399;-79
2021/11/12 09:48:45;;;;;;;33.95;19.00;;;12.40;57.70;;;;;;5096470;28;20043;-80
2021/11/12 09:51:11;;;;;;;32.17;18.13;;;12.70;56.90;;;;;;5114631;28;20472;-78
2021/11/12 09:53:38;;;;;;;31.20;18.25;;;12.80;56.20;;;;;;5114598;28;20047;-79
2021/11/12 09:56:07;;;;;;;29.25;18.90;;;13.10;56.00;;;;;;5114495;28;20020;-79
2021/11/12 09:58:33;;;;;;;29.33;17.52;;;13.30;55.10;;;;;;5114940;28;20023;-79
2021/11/12 10:01:00;;;;;;;34.45;18.80;;;13.70;54.10;;;;;;5114869;28;20019;-79
2021/11/12 10:03:34;;;;;;;28.48;17.83;;;13.70;53.30;;;;;;5114547;28;20031;-79
2021/11/12 10:06:15;;;;;;;31.23;18.20;;;13.70;53.10;;;;;;5114786;28;20020;-78
2021/11/12 10:08:41;;;;;;;28.08;18.27;;;13.90;52.90;;;;;;5114584;28;20027;-79
2021/11/12 10:11:10;;;;;;;26.98;17.30;;;14.00;52.50;;;;;;5114655;28;20030;-78
2021/11/12 10:13:38;;;;;;;24.63;16.13;;;14.20;52.40;;;;;;5114297;28;20353;-79
2021/11/12 10:19:05;;;;;;;32.88;18.83;;;14.70;50.90;;;;;;5115089;28;20023;-79
2021/11/12 10:21:47;;;;;;;30.23;18.40;;;14.60;49.90;;;;;;5114262;28;20019;-79
2021/11/12 10:24:19;;;;;;;28.58;17.67;;;14.10;50.60;;;;;;5114174;28;20047;-80
2021/11/12 10:26:49;;;;;;;29.15;16.75;;;13.80;51.80;;;;;;5114137;28;20460;-79
2021/11/12 10:29:22;;;;;;;32.55;19.33;;;14.10;51.60;;;;;;5114179;28;20032;-80
2021/11/12 10:31:51;;;;;;;28.42;16.98;;;14.60;50.70;;;;;;5113741;28;20075;-79
2021/11/12 10:34:24;;;;;;;28.15;17.33;;;15.00;49.20;;;;;;5113640;28;20054;-79
2021/11/12 10:37:00;;;;;;;28.50;17.27;;;15.30;48.30;;;;;;5114042;28;20121;-78
2021/11/12 10:39:35;;;;;;;31.48;17.17;;;15.60;47.50;;;;;;5113840;28;20043;-79
2021/11/12 10:42:04;;;;;;;29.65;18.67;;;15.50;47.30;;;;;;5095304;28;20114;-79
2021/11/12 10:44:33;;;;;;;26.75;17.55;;;15.50;47.60;;;;;;5113395;28;20031;-78
2021/11/12 10:47:02;;;;;;;33.30;19.27;;;15.70;47.30;;;;;;5113644;28;20487;-79
2021/11/12 10:49:32;;;;;;;27.38;16.55;;;15.30;48.40;;;;;;5111347;28;20028;-79
2021/11/12 10:52:15;;;;;;;26.60;16.83;;;15.40;48.80;;;;;;5114174;28;20076;-79
2021/11/12 10:57:18;;;;;;;28.88;16.08;;;16.20;46.40;;;;;;5113781;28;20020;-79
2021/11/12 11:00:05;;;;;;;26.33;16.02;;;16.50;45.00;;;;;;5113829;28;20072;-78
2021/11/12 11:02:37;;;;;;;29.15;16.88;;;16.80;44.40;;;;;;5113123;28;20020;-79
2021/11/12 11:05:08;;;;;;;30.63;17.35;;;17.00;44.00;;;;;;5113713;28;20031;-78
2021/11/12 11:07:34;;;;;;;30.40;16.25;;;16.90;44.00;;;;;;5095013;28;20096;-79
2021/11/12 11:10:02;;;;;;;23.90;15.88;;;17.20;43.50;;;;;;5112920;28;20028;-79
2021/11/12 11:12:41;;;;;;;23.77;15.85;;;17.60;42.70;;;;;;5113189;28;20032;-79
2021/11/12 11:15:15;;;;;;;25.77;16.80;;;17.20;43.70;;;;;;5112905;28;20027;-78
2021/11/12 11:17:46;;;;;;;30.83;18.98;;;17.00;44.20;;;;;;5094504;28;20031;-79
2021/11/12 11:20:16;;;;;;;29.02;17.88;;;16.80;45.20;;;;;;5112840;28;20058;-78
2021/11/12 11:22:57;;;;;;;26.95;15.80;;;16.90;44.70;;;;;;5113046;28;20015;-79
2021/11/12 11:25:25;;;;;;;23.85;15.65;;;16.80;44.90;;;;;;5113511;28;20035;-77
2021/11/12 11:27:54;;;;;;;22.35;15.35;;;17.20;45.10;;;;;;5112857;28;20489;-80
2021/11/12 11:30:19;;;;;;;23.85;16.10;;;17.70;42.60;;;;;;5113664;28;20380;-77
2021/11/12 11:32:46;;;;;;;23.30;14.57;;;18.10;41.30;;;;;;5113354;28;20047;-84
2021/11/12 11:35:13;;;;;;;23.27;14.57;;;18.20;41.30;;;;;;5113458;28;20038;-78
2021/11/12 11:37:40;;;;;;;24.48;16.00;;;18.40;40.10;;;;;;5115828;28;20103;-84
2021/11/12 11:40:09;;;;;;;24.13;16.13;;;18.90;39.50;;;;;;5114375;28;20019;-81
2021/11/12 11:42:37;;;;;;;23.60;14.55;;;19.30;38.90;;;;;;5115228;28;20087;-76
2021/11/12 11:45:04;;;;;;;23.60;15.05;;;19.70;38.10;;;;;;5119200;28;20110;-77
2021/11/12 11:47:30;;;;;;;26.58;15.13;;;19.80;37.30;;;;;;5116466;28;20357;-77
2021/11/12 11:49:56;;;;;;;26.25;15.52;;;20.00;36.90;;;;;;5116113;28;20023;-76
2021/11/12 11:52:30;;;;;;;21.17;14.95;;;20.30;36.40;;;;;;5116546;28;20495;-82
2021/11/12 11:54:56;;;;;;;22.33;14.65;;;20.60;36.00;;;;;;5115508;28;20024;-77
2021/11/12 11:57:26;;;;;;;21.55;14.82;;;21.10;35.60;;;;;;5113886;28;20020;-76
2021/11/12 12:00:16;;;;;;;24.58;14.57;;;21.50;34.60;;;;;;5114673;28;20024;-79
2021/11/12 12:02:41;;;;;;;24.20;15.20;;;22.00;33.90;;;;;;5117157;28;20024;-75
2021/11/12 12:05:08;;;;;;;21.08;14.85;;;22.00;33.70;;;;;;5117022;28;20028;-75
2021/11/12 12:07:52;;;;;;;22.42;15.13;;;22.30;33.00;;;;;;5117817;28;20047;-75
2021/11/12 12:10:21;;;;;;;18.65;13.88;;;22.60;32.20;;;;;;5098743;28;20099;-83
2021/11/12 12:12:51;;;;;;;18.23;13.38;;;23.00;31.70;;;;;;5117119;28;20290;-75
2021/11/12 12:15:23;;;;;;;18.08;13.38;;;23.30;31.10;;;;;;5098172;28;20068;-75
2021/11/12 12:18:05;;;;;;;24.90;16.02;;;24.00;29.40;;;;;;5116367;28;20081;-76
2021/11/12 12:20:45;;;;;;;22.70;15.05;;;24.60;29.30;;;;;;5117083;28;20020;-75
2021/11/12 12:35:09;;;;;;;16.17;11.20;;;27.50;23.50;;;;;;5116071;28;20034;-78
2021/11/12 13:22:41;;;;;;;12.80;11.35;;;38.90;9.80;;;;;;5136746;27;20031;-76
2021/11/12 13:25:11;;;;;;;11.20;9.88;;;39.00;9.70;;;;;;5137632;27;20023;-75
2021/11/12 13:27:42;;;;;;;14.48;10.45;;;38.50;9.50;;;;;;5117944;27;20483;-75
2021/11/12 13:30:08;;;;;;;10.52;8.95;;;38.90;9.30;;;;;;5137302;27;20027;-75
2021/11/12 13:32:41;;;;;;;17.10;11.02;;;39.50;9.30;;;;;;5136297;27;20096;-76
2021/11/12 13:35:10;;;;;;;13.48;9.52;;;39.90;8.70;;;;;;5136487;27;20047;-76
2021/11/12 13:37:36;;;;;;;14.65;12.13;;;39.30;9.10;;;;;;5136342;27;20556;-76
2021/11/12 13:40:04;;;;;;;12.80;10.30;;;39.00;9.10;;;;;;5136171;27;20023;-76
2021/11/12 13:42:42;;;;;;;16.25;12.38;;;37.50;9.90;;;;;;5136268;27;20023;-80
2021/11/12 13:45:20;;;;;;;14.00;11.75;;;38.20;10.20;;;;;;5117549;27;20067;-77
2021/11/12 13:47:59;;;;;;;12.68;10.70;;;38.50;9.80;;;;;;5135534;27;20343;-76
2021/11/12 13:50:24;;;;;;;12.70;9.52;;;38.60;9.70;;;;;;5135232;27;20068;-81
2021/11/12 13:52:51;;;;;;;16.65;11.50;;;38.40;10.00;;;;;;5135251;27;20023;-77
2021/11/12 13:55:17;;;;;;;15.73;12.45;;;38.60;9.70;;;;;;5135041;27;20046;-75
2021/11/12 13:57:58;;;;;;;11.10;9.20;;;37.30;10.10;;;;;;5134742;27;20031;-78
2021/11/12 14:00:28;;;;;;;13.50;10.13;;;37.30;10.90;;;;;;5116164;27;20039;-73
2021/11/12 14:03:04;;;;;;;14.43;9.15;;;37.90;10.50;;;;;;5134627;27;20054;-75
2021/11/12 14:05:31;;;;;;;12.07;9.70;;;38.40;10.30;;;;;;5134531;27;20027;-78
2021/11/12 14:08:03;;;;;;;12.38;10.52;;;38.70;9.80;;;;;;5134743;27;20015;-76
2021/11/12 14:10:43;;;;;;;12.32;8.98;;;39.00;9.80;;;;;;5134943;27;20026;-75
2021/11/12 14:13:15;;;;;;;15.02;11.32;;;38.80;9.30;;;;;;5134734;27;20026;-74
2021/11/12 14:26:54;;;;;;;74.50;53.03;;;37.30;11.80;;;;;;5134599;27;20567;-75
2021/11/12 14:49:13;;;;;;;90.20;67.47;;;33.50;15.60;;;;;;5136224;27;20056;-74
2021/11/12 14:54:29;;;;;;;62.75;47.95;;;32.30;17.10;;;;;;5150867;27;20027;-76
2021/11/12 14:56:58;;;;;;;42.72;31.50;;;31.60;17.70;;;;;;5157244;27;20007;-75
2021/11/12 14:59:23;;;;;;;26.30;17.73;;;31.50;18.20;;;;;;5152875;27;20090;-76
2021/11/12 15:01:49;;;;;;;27.70;19.67;;;30.70;18.30;;;;;;5142487;27;20030;-74
2021/11/12 15:04:17;;;;;;;30.30;22.85;;;30.00;19.40;;;;;;5143093;27;20387;-77
2021/11/12 15:06:44;;;;;;;42.80;30.42;;;29.20;20.20;;;;;;5153147;27;20028;-78
2021/11/12 15:09:19;;;;;;;26.13;18.38;;;28.20;21.70;;;;;;5144410;27;20034;-75
2021/11/12 15:11:48;;;;;;;12.93;9.35;;;26.40;24.00;;;;;;5136898;27;20486;-75
2021/11/12 15:14:19;;;;;;;14.93;11.88;;;24.50;27.80;;;;;;5134821;27;20015;-74
2021/11/12 15:16:45;;;;;;;21.55;11.93;;;22.90;32.20;;;;;;5141854;27;20019;-76
2021/11/12 15:19:15;;;;;;;15.93;11.13;;;21.60;35.40;;;;;;5134780;28;20067;-75
2021/11/12 15:24:29;;;;;;;11.77;9.02;;;19.70;39.60;;;;;;5134352;27;20471;-74
2021/11/12 15:29:26;;;;;;;15.65;9.75;;;18.30;43.60;;;;;;5133806;27;20106;-77
2021/11/12 15:34:23;;;;;;;14.57;9.10;;;17.30;47.10;;;;;;5134502;27;20038;-73
2021/11/12 15:37:11;;;;;;;18.55;8.65;;;16.90;48.40;;;;;;5137900;27;20015;-76
2021/11/12 15:44:37;;;;;;;17.77;7.72;;;15.60;52.70;;;;;;5137462;27;20023;-74
2021/11/12 15:47:05;;;;;;;18.45;9.02;;;15.20;53.40;;;;;;5138746;27;20019;-81
2021/11/12 15:49:31;;;;;;;13.07;9.48;;;15.00;54.50;;;;;;5138208;27;20030;-75
2021/11/12 15:52:20;;;;;;;17.15;9.20;;;14.80;55.50;;;;;;5137584;27;20023;-75
2021/11/12 16:00:13;;;;;;;27.90;15.27;;;13.80;59.20;;;;;;5137710;27;20050;-82
2021/11/12 16:18:14;;;;;;;34.40;21.17;;;12.90;65.20;;;;;;5136775;27;20061;-73
2021/11/12 16:20:53;;;;;;;25.42;17.70;;;12.70;65.10;;;;;;5137255;27;20477;-74
2021/11/12 16:23:43;;;;;;;19.23;13.50;;;12.60;65.90;;;;;;5136960;27;20031;-74
2021/11/12 16:26:11;;;;;;;19.58;11.82;;;12.50;67.50;;;;;;5136306;27;20041;-74
2021/11/12 16:29:08;;;;;;;21.05;12.65;;;12.30;68.30;;;;;;5136585;27;20106;-75
2021/11/12 16:31:37;;;;;;;17.67;11.45;;;12.00;69.20;;;;;;5136265;27;20051;-74
2021/11/12 16:34:10;;;;;;;17.77;10.52;;;11.90;70.50;;;;;;5136686;27;20026;-75
2021/11/12 16:36:42;;;;;;;20.45;13.38;;;11.80;71.00;;;;;;5136325;27;20019;-73
2021/11/12 16:39:08;;;;;;;22.15;12.00;;;11.80;71.00;;;;;;5136242;27;20356;-75
2021/11/12 16:41:34;;;;;;;19.30;12.00;;;11.70;70.90;;;;;;5136354;27;20023;-75
2021/11/12 16:49:24;;;;;;;18.88;13.02;;;11.40;71.50;;;;;;5136166;27;20041;-74
2021/11/12 16:56:54;;;;;;;38.92;17.33;;;11.10;72.30;;;;;;5136253;27;20026;-74
2021/11/12 16:59:25;;;;;;;101.85;40.00;;;11.10;72.30;;;;;;5136267;27;20095;-80
2021/11/12 17:12:44;;;;;;;81.82;35.45;;;10.70;71.00;;;;;;5103863;27;20060;-78
2021/11/12 17:15:21;;;;;;;76.63;32.72;;;10.70;71.10;;;;;;5135663;27;20381;-74
2021/11/12 17:47:09;;;;;;;53.58;28.70;;;9.90;71.70;;;;;;5135528;27;20078;-75
2021/11/12 17:49:50;;;;;;;52.50;29.63;;;9.70;71.60;;;;;;5135208;27;20456;-77
2021/11/12 18:03:28;;;;;;;39.08;23.23;;;9.40;74.30;;;;;;5126683;27;20038;-76
2021/11/12 18:06:00;;;;;;;35.60;22.13;;;9.40;74.30;;;;;;5135382;27;20105;-74
2021/11/12 18:08:53;;;;;;;38.97;21.65;;;9.40;74.20;;;;;;5135257;27;20050;-75
2021/11/12 18:14:00;;;;;;;38.83;22.77;;;9.40;74.20;;;;;;5135401;27;20015;-74
2021/11/12 21:48:41;;;;;;;38.80;21.95;;;6.50;84.90;;;;;;5135389;27;20095;-76
2021/11/12 21:51:11;;;;;;;34.85;21.50;;;6.40;85.40;;;;;;5135457;27;20030;-73
2021/11/12 21:53:37;;;;;;;38.47;22.23;;;6.30;85.40;;;;;;5135279;27;20022;-74
2021/11/12 21:56:04;;;;;;;37.80;22.02;;;6.20;85.60;;;;;;5135269;27;20053;-73
2021/11/12 21:58:31;;;;;;;40.22;22.90;;;6.10;86.50;;;;;;5135220;27;20039;-76
2021/11/12 22:00:59;;;;;;;35.55;20.50;;;6.10;86.70;;;;;;5135126;27;20022;-74
2021/11/12 22:03:27;;;;;;;32.72;19.25;;;6.10;86.90;;;;;;5135127;27;20030;-74
2021/11/12 22:05:54;;;;;;;34.15;19.70;;;6.20;86.60;;;;;;5134988;27;20083;-78
2021/11/12 22:08:20;;;;;;;38.15;20.23;;;6.20;86.30;;;;;;5135003;27;20474;-74
2021/11/12 22:10:46;;;;;;;37.03;21.30;;;6.20;86.10;;;;;;5135079;27;20057;-75
2021/11/12 22:13:12;;;;;;;37.70;21.17;;;6.20;86.50;;;;;;5134926;27;20094;-74
2021/11/12 22:15:40;;;;;;;41.25;21.25;;;6.10;87.10;;;;;;5134969;27;20187;-74
2021/11/12 22:18:10;;;;;;;37.17;19.33;;;6.10;87.20;;;;;;5134844;27;20015;-73
2021/11/12 22:20:37;;;;;;;32.40;18.52;;;6.00;87.00;;;;;;5134963;27;20106;-74
2021/11/12 22:23:03;;;;;;;31.13;18.40;;;6.10;87.10;;;;;;5134702;27;20019;-74
2021/11/12 22:25:31;;;;;;;33.67;18.92;;;6.10;86.80;;;;;;5133200;27;20035;-73
2021/11/12 22:27:56;;;;;;;35.58;18.63;;;6.00;87.10;;;;;;5134492;27;20033;-74